Time;durP1;ratioP1;P1;durP2;ratioP2;P2;SDS_P1;SDS_P2;PMS_P1;PMS_P2;Temp;Humidity;BMP_temperature;BMP_pressure;BME280_temperature;BME280_humidity;BME280_pressure;Samples;Min_cycle;Max_cycle;Signal;HPM_P1;HPM_P2
2023/06/06 00:00:34;;;;;;;4.20;3.60;;;;;;;;;;5033510;28;20394;-80
2023/06/06 00:03:00;;;;;;;3.60;3.40;;;;;;;;;;5032097;28;20983;-80
2023/06/06 00:05:29;;;;;;;3.75;3.35;;;;;;;;;;5033510;28;20425;-80
2023/06/06 00:07:56;;;;;;;3.90;3.60;;;;;;;;;;5033669;28;20383;-80
2023/06/06 00:10:22;;;;;;;4.03;3.63;;;;;;;;;;5033447;28;20872;-80
2023/06/06 00:12:52;;;;;;;3.70;3.40;;;;;;;;;;5032122;28;20393;-80
2023/06/06 00:15:19;;;;;;;3.90;3.50;;;;;;;;;;5033347;28;20492;-80
2023/06/06 00:17:45;;;;;;;3.80;3.50;;;;;;;;;;5033257;28;20445;-80
2023/06/06 00:20:12;;;;;;;3.60;3.30;;;;;;;;;;5033508;28;20816;-80
2023/06/06 00:22:38;;;;;;;4.07;3.78;;;;;;;;;;5032684;28;20397;-80
2023/06/06 00:25:05;;;;;;;3.60;3.35;;;;;;;;;;5033253;28;20379;-80
2023/06/06 00:27:34;;;;;;;3.88;3.67;;;;;;;;;;5032585;28;20726;-80
2023/06/06 00:30:00;;;;;;;4.10;3.80;;;;;;;;;;5032892;28;20387;-80
2023/06/06 00:32:27;;;;;;;3.85;3.55;;;;;;;;;;5033075;28;20454;-81
2023/06/06 00:34:53;;;;;;;4.03;3.53;;;;;;;;;;5033068;28;20466;-81
2023/06/06 00:37:19;;;;;;;5.00;3.47;;;;;;;;;;5032876;28;20383;-79
2023/06/06 00:39:45;;;;;;;3.85;3.55;;;;;;;;;;5032969;28;20457;-81
2023/06/06 00:42:11;;;;;;;3.80;3.50;;;;;;;;;;5032296;28;20413;-78
2023/06/06 00:44:37;;;;;;;3.70;3.40;;;;;;;;;;5032703;28;20494;-78
2023/06/06 00:47:03;;;;;;;3.80;3.50;;;;;;;;;;5032343;28;20375;-81
2023/06/06 00:49:29;;;;;;;3.83;3.53;;;;;;;;;;5032669;28;20406;-79
2023/06/06 00:51:55;;;;;;;3.92;3.67;;;;;;;;;;5032202;28;20379;-79
2023/06/06 00:54:22;;;;;;;3.97;3.67;;;;;;;;;;5032320;28;20387;-79
2023/06/06 00:56:50;;;;;;;4.20;3.80;;;;;;;;;;5064627;22;20903;-80
2023/06/06 00:59:16;;;;;;;4.20;3.90;;;;;;;;;;5051152;28;20382;-78
2023/06/06 01:01:43;;;;;;;3.72;3.40;;;;;;;;;;5053185;28;20386;-78
2023/06/06 01:04:10;;;;;;;4.10;3.80;;;;;;;;;;5051596;28;20426;-79
2023/06/06 01:06:37;;;;;;;3.75;3.45;;;;;;;;;;5053223;28;20380;-79
2023/06/06 01:09:04;;;;;;;4.03;3.70;;;;;;;;;;5052862;28;20377;-78
2023/06/06 01:11:40;;;;;;;4.32;3.92;;;;;;;;;;5053016;28;20392;-77
2023/06/06 01:14:09;;;;;;;4.00;3.70;;;;;;;;;;5052898;28;20773;-77
2023/06/06 01:16:35;;;;;;;4.03;3.72;;;;;;;;;;5051418;28;20757;-79
2023/06/06 01:19:04;;;;;;;3.90;3.60;;;;;;;;;;5052285;28;20464;-79
2023/06/06 01:21:41;;;;;;;4.20;3.60;;;;;;;;;;5052860;28;20388;-79
2023/06/06 01:24:07;;;;;;;4.25;3.95;;;;;;;;;;5052571;28;20412;-76
2023/06/06 01:26:33;;;;;;;4.17;3.80;;;;;;;;;;5052176;28;20878;-79
2023/06/06 01:28:59;;;;;;;4.05;3.75;;;;;;;;;;5052005;28;21214;-78
2023/06/06 01:31:28;;;;;;;3.95;3.65;;;;;;;;;;5051998;28;20450;-78
2023/06/06 01:34:01;;;;;;;4.10;3.80;;;;;;;;;;5051729;28;20389;-78
2023/06/06 01:36:27;;;;;;;3.85;3.65;;;;;;;;;;5051877;28;20377;-78
2023/06/06 01:39:00;;;;;;;3.95;3.70;;;;;;;;;;5051734;28;20389;-78
2023/06/06 01:41:27;;;;;;;4.05;3.75;;;;;;;;;;5052300;28;20443;-77
2023/06/06 01:43:54;;;;;;;3.85;3.65;;;;;;;;;;5051814;28;20422;-77
2023/06/06 01:46:21;;;;;;;4.07;3.67;;;;;;;;;;5052536;28;20374;-77
2023/06/06 01:48:47;;;;;;;4.00;3.70;;;;;;;;;;5052071;28;20419;-78
2023/06/06 01:51:13;;;;;;;3.85;3.55;;;;;;;;;;5052122;28;20531;-79
2023/06/06 01:53:39;;;;;;;4.10;3.80;;;;;;;;;;5051444;28;20894;-77
2023/06/06 01:56:12;;;;;;;3.90;3.70;;;;;;;;;;5037492;28;20743;-77
2023/06/06 01:58:38;;;;;;;3.80;3.50;;;;;;;;;;5051827;28;20384;-79
2023/06/06 02:01:06;;;;;;;4.20;3.90;;;;;;;;;;5051721;28;20423;-79
2023/06/06 02:03:32;;;;;;;3.85;3.55;;;;;;;;;;5052021;28;20405;-79
2023/06/06 02:05:58;;;;;;;3.80;3.50;;;;;;;;;;5051733;28;20472;-79
2023/06/06 02:08:24;;;;;;;4.05;3.75;;;;;;;;;;5051998;28;20377;-78
2023/06/06 02:10:50;;;;;;;3.80;3.55;;;;;;;;;;5051404;28;20392;-78
2023/06/06 02:13:16;;;;;;;3.80;3.50;;;;;;;;;;5051473;28;20793;-79
2023/06/06 02:15:42;;;;;;;3.70;3.40;;;;;;;;;;5040031;28;20470;-78
2023/06/06 02:18:08;;;;;;;3.30;3.10;;;;;;;;;;5032974;28;20466;-77
2023/06/06 02:20:34;;;;;;;3.72;3.47;;;;;;;;;;5043252;28;20795;-78
2023/06/06 02:23:01;;;;;;;3.72;3.45;;;;;;;;;;5047709;28;20437;-78
2023/06/06 02:25:27;;;;;;;3.42;3.20;;;;;;;;;;5048858;28;20883;-78
2023/06/06 02:27:53;;;;;;;3.53;3.22;;;;;;;;;;5047457;28;20389;-78
2023/06/06 02:30:20;;;;;;;3.45;3.25;;;;;;;;;;5050158;28;20739;-78
2023/06/06 02:32:46;;;;;;;3.20;3.00;;;;;;;;;;5048997;28;20377;-77
2023/06/06 02:35:14;;;;;;;3.40;3.20;;;;;;;;;;5048903;28;20373;-77
2023/06/06 02:37:40;;;;;;;3.42;3.22;;;;;;;;;;5055161;28;20373;-78
2023/06/06 02:40:10;;;;;;;3.87;3.57;;;;;;;;;;5055113;28;21048;-77
2023/06/06 02:42:39;;;;;;;3.70;3.40;;;;;;;;;;5055456;28;20385;-77
2023/06/06 02:45:08;;;;;;;3.50;3.30;;;;;;;;;;5055680;28;20384;-77
2023/06/06 02:47:34;;;;;;;3.50;3.30;;;;;;;;;;5055135;28;20397;-77
2023/06/06 02:50:01;;;;;;;3.55;3.25;;;;;;;;;;5055271;28;20881;-77
2023/06/06 02:52:28;;;;;;;3.50;3.20;;;;;;;;;;5054984;28;20385;-77
2023/06/06 02:54:54;;;;;;;3.85;3.55;;;;;;;;;;5055213;28;20468;-78
2023/06/06 02:57:21;;;;;;;3.47;3.17;;;;;;;;;;5054676;28;20424;-78
2023/06/06 02:59:47;;;;;;;4.43;4.13;;;;;;;;;;5054988;28;20377;-77
2023/06/06 03:02:15;;;;;;;3.83;3.42;;;;;;;;;;5055016;28;20385;-77
2023/06/06 03:04:43;;;;;;;3.40;3.10;;;;;;;;;;5055111;28;20405;-77
2023/06/06 03:07:10;;;;;;;3.22;3.03;;;;;;;;;;5055523;28;20377;-77
2023/06/06 03:09:36;;;;;;;3.60;3.40;;;;;;;;;;5055529;28;20911;-78
2023/06/06 03:12:03;;;;;;;3.25;3.05;;;;;;;;;;5054421;28;20846;-78
2023/06/06 03:14:29;;;;;;;3.38;3.17;;;;;;;;;;5053925;28;20392;-78
2023/06/06 03:16:56;;;;;;;3.35;2.90;;;;;;;;;;5045221;28;20397;-78
2023/06/06 03:19:22;;;;;;;3.07;2.87;;;;;;;;;;5063359;28;20499;-76
2023/06/06 03:21:49;;;;;;;2.97;2.77;;;;;;;;;;5051451;28;20388;-79
2023/06/06 03:24:15;;;;;;;3.30;3.08;;;;;;;;;;5044528;28;20441;-78
2023/06/06 03:26:47;;;;;;;3.13;2.93;;;;;;;;;;5048047;28;20381;-78
2023/06/06 03:29:14;;;;;;;2.95;2.75;;;;;;;;;;5054540;28;20365;-77
2023/06/06 03:31:41;;;;;;;5.55;2.80;;;;;;;;;;5043243;28;20430;-78
2023/06/06 03:34:07;;;;;;;2.93;2.73;;;;;;;;;;5046660;28;20411;-78
2023/06/06 03:36:34;;;;;;;2.80;2.60;;;;;;;;;;5039546;28;20786;-78
2023/06/06 03:39:03;;;;;;;2.70;2.50;;;;;;;;;;5043070;28;20386;-79
2023/06/06 03:41:30;;;;;;;2.60;2.40;;;;;;;;;;5037883;28;20383;-78
2023/06/06 03:43:56;;;;;;;2.30;2.20;;;;;;;;;;5038186;28;20408;-77
2023/06/06 03:46:23;;;;;;;2.72;2.53;;;;;;;;;;5044378;28;20369;-78
2023/06/06 03:48:49;;;;;;;2.58;2.47;;;;;;;;;;5051984;28;20449;-78
2023/06/06 03:51:15;;;;;;;2.78;2.58;;;;;;;;;;5052885;28;20511;-78
2023/06/06 03:53:42;;;;;;;2.70;2.50;;;;;;;;;;5052385;28;20413;-78
2023/06/06 03:56:08;;;;;;;2.42;2.33;;;;;;;;;;5051837;28;20413;-78
2023/06/06 03:58:34;;;;;;;2.70;2.50;;;;;;;;;;5052216;28;20436;-77
2023/06/06 04:01:01;;;;;;;3.15;2.85;;;;;;;;;;5050413;28;20401;-78
2023/06/06 04:03:29;;;;;;;2.97;2.78;;;;;;;;;;5051890;28;20504;-79
2023/06/06 04:05:55;;;;;;;2.83;2.63;;;;;;;;;;5053791;28;20381;-78
2023/06/06 04:08:21;;;;;;;2.65;2.45;;;;;;;;;;5053969;28;20386;-78
2023/06/06 04:10:47;;;;;;;2.85;2.65;;;;;;;;;;5054067;28;20431;-79
2023/06/06 04:13:13;;;;;;;2.50;2.27;;;;;;;;;;5053546;28;20443;-78
2023/06/06 04:15:39;;;;;;;2.80;2.60;;;;;;;;;;5053771;28;20388;-79
2023/06/06 04:18:05;;;;;;;2.90;2.30;;;;;;;;;;5053544;28;20920;-79
2023/06/06 04:20:34;;;;;;;3.00;2.75;;;;;;;;;;5053598;28;20384;-79
2023/06/06 04:23:00;;;;;;;3.00;2.80;;;;;;;;;;5053670;28;20409;-76
2023/06/06 04:25:26;;;;;;;2.80;2.60;;;;;;;;;;5053718;28;20508;-77
2023/06/06 04:27:53;;;;;;;2.88;2.67;;;;;;;;;;5052558;28;20434;-79
2023/06/06 04:30:29;;;;;;;2.60;2.40;;;;;;;;;;5053110;28;20394;-79
2023/06/06 04:32:55;;;;;;;2.60;2.50;;;;;;;;;;5053115;28;20389;-79
2023/06/06 04:35:21;;;;;;;3.83;2.90;;;;;;;;;;5052993;28;20392;-79
2023/06/06 04:37:47;;;;;;;2.38;2.20;;;;;;;;;;5053034;28;20378;-79
2023/06/06 04:40:14;;;;;;;2.65;2.45;;;;;;;;;;5052794;28;20435;-79
2023/06/06 04:42:40;;;;;;;2.70;2.40;;;;;;;;;;5052961;28;20403;-79
2023/06/06 04:45:06;;;;;;;2.78;2.58;;;;;;;;;;5052991;28;20853;-79
2023/06/06 04:47:33;;;;;;;2.60;2.40;;;;;;;;;;5052688;28;20859;-78
2023/06/06 04:49:59;;;;;;;2.50;2.30;;;;;;;;;;5053081;28;20782;-79
2023/06/06 04:52:25;;;;;;;2.78;2.58;;;;;;;;;;5052557;28;20814;-79
2023/06/06 04:54:52;;;;;;;2.40;2.20;;;;;;;;;;5052652;28;20448;-79
2023/06/06 04:57:19;;;;;;;2.20;2.10;;;;;;;;;;5051920;28;20890;-79
2023/06/06 04:59:52;;;;;;;2.38;2.20;;;;;;;;;;5052777;28;20455;-79
2023/06/06 05:02:21;;;;;;;2.90;2.20;;;;;;;;;;5052333;28;20377;-79
2023/06/06 05:04:57;;;;;;;2.45;2.25;;;;;;;;;;5051668;28;20414;-79
2023/06/06 05:07:23;;;;;;;2.33;2.13;;;;;;;;;;5052132;28;20381;-79
2023/06/06 05:09:52;;;;;;;2.70;2.50;;;;;;;;;;5035856;28;20437;-80
2023/06/06 05:12:18;;;;;;;2.63;2.42;;;;;;;;;;5035444;28;20375;-80
2023/06/06 05:14:44;;;;;;;2.53;2.33;;;;;;;;;;5037879;28;20751;-80
2023/06/06 05:17:14;;;;;;;2.58;2.38;;;;;;;;;;5037390;28;20487;-80
2023/06/06 05:19:41;;;;;;;2.50;2.30;;;;;;;;;;5047386;28;20381;-79
2023/06/06 05:22:07;;;;;;;2.40;2.20;;;;;;;;;;5050329;28;20386;-79
2023/06/06 05:24:33;;;;;;;2.63;2.43;;;;;;;;;;5051923;28;20421;-79
2023/06/06 05:26:59;;;;;;;2.00;1.90;;;;;;;;;;5050433;28;20416;-79
2023/06/06 05:29:26;;;;;;;2.50;2.30;;;;;;;;;;5052390;28;20928;-79
2023/06/06 05:31:52;;;;;;;2.30;2.20;;;;;;;;;;5052010;28;20862;-79
2023/06/06 05:34:18;;;;;;;2.40;2.20;;;;;;;;;;5052268;28;20504;-78
2023/06/06 05:36:44;;;;;;;2.72;2.53;;;;;;;;;;5051994;28;20899;-79
2023/06/06 05:39:10;;;;;;;2.63;2.42;;;;;;;;;;5051859;28;20728;-79
2023/06/06 05:41:37;;;;;;;2.60;2.40;;;;;;;;;;5050335;28;20748;-79
2023/06/06 05:44:03;;;;;;;2.72;2.53;;;;;;;;;;5051892;28;20751;-80
2023/06/06 05:46:29;;;;;;;2.90;2.70;;;;;;;;;;5051696;28;20785;-79
2023/06/06 05:48:55;;;;;;;3.10;2.47;;;;;;;;;;5050905;28;20378;-79
2023/06/06 05:51:21;;;;;;;2.63;2.42;;;;;;;;;;5052047;28;20378;-80
2023/06/06 05:53:47;;;;;;;2.80;2.50;;;;;;;;;;5051829;28;20384;-80
2023/06/06 05:56:14;;;;;;;2.70;2.50;;;;;;;;;;5051549;28;20488;-78
2023/06/06 05:58:46;;;;;;;3.30;3.00;;;;;;;;;;5051950;28;20381;-79
2023/06/06 06:01:12;;;;;;;2.90;2.70;;;;;;;;;;5051772;28;20457;-79
2023/06/06 06:03:41;;;;;;;4.13;2.90;;;;;;;;;;5052005;28;20401;-79
2023/06/06 06:06:08;;;;;;;3.05;2.85;;;;;;;;;;5051503;28;20405;-79
2023/06/06 06:08:35;;;;;;;3.03;2.60;;;;;;;;;;5051690;28;20454;-79
2023/06/06 06:11:01;;;;;;;3.85;2.90;;;;;;;;;;5050612;28;22342;-79
2023/06/06 06:13:27;;;;;;;2.65;2.45;;;;;;;;;;5051552;28;20385;-79
2023/06/06 06:15:53;;;;;;;3.30;2.72;;;;;;;;;;5051331;28;20889;-80
2023/06/06 06:18:19;;;;;;;3.13;2.83;;;;;;;;;;5051483;28;20869;-79
2023/06/06 06:20:46;;;;;;;3.00;2.80;;;;;;;;;;5051589;28;20428;-79
2023/06/06 06:23:12;;;;;;;4.50;3.47;;;;;;;;;;5050715;28;20405;-80
2023/06/06 06:25:38;;;;;;;4.00;3.60;;;;;;;;;;5051413;28;20460;-80
2023/06/06 06:28:04;;;;;;;3.63;3.33;;;;;;;;;;5048695;28;20962;-80
2023/06/06 06:30:30;;;;;;;3.00;2.70;;;;;;;;;;5050980;28;20468;-79
2023/06/06 06:32:56;;;;;;;3.38;3.08;;;;;;;;;;5051468;28;20475;-78
2023/06/06 06:35:22;;;;;;;3.53;3.30;;;;;;;;;;5050116;28;20909;-79
2023/06/06 06:37:49;;;;;;;3.33;3.08;;;;;;;;;;5051161;28;20386;-79
2023/06/06 06:40:15;;;;;;;3.53;3.20;;;;;;;;;;5047515;28;20424;-80
2023/06/06 06:42:43;;;;;;;8.82;3.65;;;;;;;;;;5050101;28;20397;-79
2023/06/06 06:45:12;;;;;;;3.83;3.00;;;;;;;;;;5050456;28;20382;-79
2023/06/06 06:47:38;;;;;;;3.20;2.95;;;;;;;;;;5045491;28;20469;-80
2023/06/06 06:50:04;;;;;;;6.03;3.05;;;;;;;;;;5040142;28;20387;-80
2023/06/06 06:52:35;;;;;;;3.50;3.20;;;;;;;;;;5042643;28;20385;-79
2023/06/06 06:55:01;;;;;;;2.95;2.70;;;;;;;;;;5049888;28;20385;-79
2023/06/06 06:57:29;;;;;;;3.40;3.10;;;;;;;;;;5034886;28;20502;-80
2023/06/06 06:59:59;;;;;;;3.53;3.00;;;;;;;;;;5039554;28;20415;-79
2023/06/06 07:02:28;;;;;;;3.10;2.80;;;;;;;;;;5049538;28;20388;-79
2023/06/06 07:04:57;;;;;;;3.20;2.85;;;;;;;;;;5048145;28;20902;-80
2023/06/06 07:07:23;;;;;;;3.10;2.90;;;;;;;;;;5050786;28;20404;-79
2023/06/06 07:09:50;;;;;;;3.15;2.83;;;;;;;;;;5049563;28;20393;-80
2023/06/06 07:12:16;;;;;;;3.60;2.90;;;;;;;;;;5050122;28;20468;-79
2023/06/06 07:14:42;;;;;;;3.70;3.00;;;;;;;;;;5049476;28;20389;-79
2023/06/06 07:17:08;;;;;;;3.85;3.10;;;;;;;;;;5050614;28;20382;-81
2023/06/06 07:19:35;;;;;;;3.53;3.22;;;;;;;;;;5050700;28;20385;-79
2023/06/06 07:22:03;;;;;;;3.70;3.35;;;;;;;;;;5052878;28;20382;-79
2023/06/06 07:24:29;;;;;;;3.50;3.20;;;;;;;;;;5054370;28;20409;-79
2023/06/06 07:26:55;;;;;;;3.58;3.33;;;;;;;;;;5054327;28;20842;-80
2023/06/06 07:29:21;;;;;;;3.15;2.95;;;;;;;;;;5054043;28;20901;-80
2023/06/06 07:31:47;;;;;;;4.00;3.30;;;;;;;;;;5054263;28;20377;-80
2023/06/06 07:34:13;;;;;;;3.80;3.10;;;;;;;;;;5054161;28;20389;-80
2023/06/06 07:36:40;;;;;;;3.10;2.85;;;;;;;;;;5054107;28;20381;-79
2023/06/06 07:39:06;;;;;;;3.22;2.92;;;;;;;;;;5054224;28;20431;-79
2023/06/06 07:41:33;;;;;;;2.72;2.50;;;;;;;;;;5054203;28;20852;-79
2023/06/06 07:43:59;;;;;;;2.70;2.43;;;;;;;;;;5053273;28;20462;-79
2023/06/06 07:46:25;;;;;;;3.20;2.45;;;;;;;;;;5053934;28;20393;-79
2023/06/06 07:48:52;;;;;;;2.80;2.60;;;;;;;;;;5053916;28;20377;-79
2023/06/06 07:51:18;;;;;;;3.08;2.38;;;;;;;;;;5054429;28;20828;-79
2023/06/06 07:53:44;;;;;;;2.70;2.45;;;;;;;;;;5054207;28;20766;-79
2023/06/06 07:56:12;;;;;;;2.97;2.20;;;;;;;;;;5053781;28;20443;-80
2023/06/06 07:58:43;;;;;;;2.10;2.00;;;;;;;;;;5054103;28;20385;-79
2023/06/06 08:01:10;;;;;;;2.07;1.97;;;;;;;;;;5054015;28;20373;-79
2023/06/06 08:03:37;;;;;;;2.50;2.00;;;;;;;;;;5053581;28;20432;-80
2023/06/06 08:06:03;;;;;;;2.35;2.15;;;;;;;;;;5053578;28;20377;-80
2023/06/06 08:08:29;;;;;;;2.63;2.00;;;;;;;;;;5053663;28;20409;-80
2023/06/06 08:10:55;;;;;;;2.65;2.05;;;;;;;;;;5053446;28;20386;-80
2023/06/06 08:13:21;;;;;;;2.67;2.47;;;;;;;;;;5053122;28;20385;-80
2023/06/06 08:15:47;;;;;;;2.85;1.98;;;;;;;;;;5053451;28;20377;-80
2023/06/06 08:18:14;;;;;;;3.45;2.00;;;;;;;;;;5053402;28;20942;-80
2023/06/06 08:20:40;;;;;;;2.22;1.90;;;;;;;;;;5053314;28;20393;-80
2023/06/06 08:23:06;;;;;;;2.03;1.90;;;;;;;;;;5053121;28;20397;-79
2023/06/06 08:25:32;;;;;;;4.20;2.78;;;;;;;;;;5053408;28;20381;-79
2023/06/06 08:27:58;;;;;;;1.80;1.70;;;;;;;;;;5053376;28;20726;-80
2023/06/06 08:30:25;;;;;;;2.00;1.90;;;;;;;;;;5052944;28;20472;-80
2023/06/06 08:32:51;;;;;;;2.15;2.00;;;;;;;;;;5052574;28;20404;-80
2023/06/06 08:35:20;;;;;;;3.83;2.10;;;;;;;;;;5053180;28;20803;-81
2023/06/06 08:37:46;;;;;;;2.38;1.70;;;;;;;;;;5053026;28;20885;-82
2023/06/06 08:40:12;;;;;;;2.10;2.00;;;;;;;;;;5053296;28;20384;-82
2023/06/06 08:42:43;;;;;;;2.35;2.05;;;;;;;;;;5053071;28;20380;-81
2023/06/06 08:45:09;;;;;;;2.05;1.88;;;;;;;;;;5053030;28;20400;-81
2023/06/06 08:47:36;;;;;;;4.53;2.08;;;;;;;;;;5052434;28;20381;-82
2023/06/06 08:50:04;;;;;;;3.78;2.30;;;;;;;;;;5052862;28;20409;-82
2023/06/06 08:52:36;;;;;;;2.42;1.90;;;;;;;;;;5052801;28;20370;-82
2023/06/06 08:55:02;;;;;;;5.32;2.30;;;;;;;;;;5052849;28;20381;-81
2023/06/06 08:57:29;;;;;;;4.10;2.27;;;;;;;;;;5052367;28;20406;-81
2023/06/06 08:59:55;;;;;;;4.22;2.30;;;;;;;;;;5052678;28;20396;-81
2023/06/06 09:02:22;;;;;;;2.40;2.10;;;;;;;;;;5052536;28;20385;-82
2023/06/06 09:04:48;;;;;;;2.80;2.10;;;;;;;;;;5052325;28;20490;-81
2023/06/06 09:07:15;;;;;;;2.63;2.17;;;;;;;;;;5052074;28;20890;-82
2023/06/06 09:09:43;;;;;;;4.20;2.55;;;;;;;;;;5052582;28;20731;-82
2023/06/06 09:12:09;;;;;;;3.70;2.15;;;;;;;;;;5052577;28;20382;-81
2023/06/06 09:14:35;;;;;;;3.85;2.20;;;;;;;;;;5052547;28;20384;-82
2023/06/06 09:17:02;;;;;;;2.47;2.17;;;;;;;;;;5052469;28;20381;-83
2023/06/06 09:19:29;;;;;;;2.65;2.10;;;;;;;;;;5052491;28;20405;-82
2023/06/06 09:21:58;;;;;;;3.08;2.50;;;;;;;;;;5051439;28;20884;-83
2023/06/06 09:24:25;;;;;;;2.40;2.20;;;;;;;;;;5052009;28;20413;-81
2023/06/06 09:26:51;;;;;;;2.35;2.00;;;;;;;;;;5051534;28;20378;-82
2023/06/06 09:29:17;;;;;;;3.72;2.20;;;;;;;;;;5052152;28;20378;-81
2023/06/06 09:31:43;;;;;;;3.60;2.17;;;;;;;;;;5051765;28;20401;-82
2023/06/06 09:34:10;;;;;;;2.55;2.00;;;;;;;;;;5052050;28;20818;-81
2023/06/06 09:36:37;;;;;;;3.10;2.15;;;;;;;;;;5051918;28;20442;-83
2023/06/06 09:39:13;;;;;;;2.72;2.15;;;;;;;;;;5051970;28;20393;-83
2023/06/06 09:41:45;;;;;;;2.92;2.47;;;;;;;;;;5051893;28;20482;-82
2023/06/06 09:44:21;;;;;;;3.10;2.50;;;;;;;;;;5051159;28;20405;-83
2023/06/06 09:46:47;;;;;;;2.88;2.10;;;;;;;;;;5051620;28;20460;-84
2023/06/06 09:49:14;;;;;;;2.67;2.00;;;;;;;;;;5051851;28;20803;-82
2023/06/06 09:51:41;;;;;;;2.40;2.20;;;;;;;;;;5051749;28;20386;-83
2023/06/06 09:54:08;;;;;;;2.53;2.15;;;;;;;;;;5050506;28;20400;-84
2023/06/06 09:56:39;;;;;;;4.50;2.45;;;;;;;;;;5051488;28;20489;-84
2023/06/06 09:59:06;;;;;;;3.15;2.22;;;;;;;;;;5051606;28;20986;-83
2023/06/06 10:01:33;;;;;;;4.00;2.22;;;;;;;;;;5051723;28;20413;-83
2023/06/06 10:03:59;;;;;;;3.40;2.30;;;;;;;;;;5051406;28;20404;-83
2023/06/06 10:06:26;;;;;;;2.60;2.28;;;;;;;;;;5051342;28;20385;-84
2023/06/06 10:08:56;;;;;;;2.80;2.22;;;;;;;;;;5051442;28;20739;-84
2023/06/06 10:11:22;;;;;;;2.33;2.13;;;;;;;;;;5051617;28;20369;-84
2023/06/06 10:13:51;;;;;;;3.10;2.40;;;;;;;;;;5051260;28;20435;-83
2023/06/06 10:16:18;;;;;;;4.85;2.20;;;;;;;;;;5051210;28;20382;-81
2023/06/06 10:18:47;;;;;;;2.67;2.00;;;;;;;;;;5051280;28;20377;-82
2023/06/06 10:21:15;;;;;;;3.67;2.20;;;;;;;;;;5047243;28;20871;-82
2023/06/06 10:23:41;;;;;;;2.70;2.20;;;;;;;;;;5051154;28;20925;-81
2023/06/06 10:26:10;;;;;;;2.38;2.10;;;;;;;;;;5050504;28;20458;-82
2023/06/06 10:28:41;;;;;;;3.00;2.20;;;;;;;;;;5051084;28;20556;-82
2023/06/06 10:31:16;;;;;;;2.72;2.28;;;;;;;;;;5051218;28;20385;-82
2023/06/06 10:34:02;;;;;;;2.83;2.25;;;;;;;;;;5050881;28;20801;-82
2023/06/06 10:36:38;;;;;;;2.70;2.13;;;;;;;;;;5051018;28;20475;-82
2023/06/06 10:39:19;;;;;;;2.60;2.40;;;;;;;;;;5051252;28;20447;-82
2023/06/06 10:41:59;;;;;;;2.60;2.20;;;;;;;;;;5051022;28;20401;-82
2023/06/06 10:44:32;;;;;;;2.63;2.27;;;;;;;;;;5039282;28;20411;-81
2023/06/06 10:47:17;;;;;;;2.77;2.50;;;;;;;;;;5050979;28;20381;-81
2023/06/06 10:50:03;;;;;;;2.35;2.13;;;;;;;;;;5051032;28;20408;-82
2023/06/06 10:52:29;;;;;;;2.80;2.20;;;;;;;;;;5050771;28;20373;-82
2023/06/06 10:54:58;;;;;;;2.50;2.30;;;;;;;;;;5051132;28;20884;-81
2023/06/06 10:57:24;;;;;;;2.47;2.25;;;;;;;;;;5053684;28;20420;-81
2023/06/06 10:59:50;;;;;;;2.35;2.15;;;;;;;;;;5054704;28;20912;-81
2023/06/06 11:02:35;;;;;;;4.47;2.42;;;;;;;;;;5055993;28;20385;-81
2023/06/06 11:05:02;;;;;;;2.55;2.35;;;;;;;;;;5054900;28;20405;-82
2023/06/06 11:07:28;;;;;;;4.10;2.72;;;;;;;;;;5053407;28;20390;-80
2023/06/06 11:09:55;;;;;;;3.05;2.40;;;;;;;;;;5054850;28;20538;-82
2023/06/06 11:12:21;;;;;;;2.43;2.23;;;;;;;;;;5054909;28;20381;-81
2023/06/06 11:15:06;;;;;;;2.60;2.20;;;;;;;;;;5054105;28;20469;-81
2023/06/06 11:17:46;;;;;;;2.20;2.00;;;;;;;;;;5048685;28;20384;-82
2023/06/06 11:20:19;;;;;;;3.22;2.20;;;;;;;;;;5043146;28;20396;-81
2023/06/06 11:23:03;;;;;;;2.80;2.40;;;;;;;;;;5054475;28;20384;-82
2023/06/06 11:25:30;;;;;;;2.08;1.98;;;;;;;;;;5054575;28;20420;-82
2023/06/06 11:27:57;;;;;;;4.13;2.70;;;;;;;;;;5054400;28;20400;-82
2023/06/06 11:30:24;;;;;;;5.50;2.78;;;;;;;;;;5054473;28;20373;-81
2023/06/06 11:32:52;;;;;;;2.47;2.20;;;;;;;;;;5054524;28;20857;-81
2023/06/06 11:35:18;;;;;;;2.78;2.20;;;;;;;;;;5054344;28;20423;-82
2023/06/06 11:37:45;;;;;;;2.72;2.50;;;;;;;;;;5054337;28;20375;-82
2023/06/06 11:40:14;;;;;;;2.28;2.10;;;;;;;;;;5054005;28;20381;-82
2023/06/06 11:42:43;;;;;;;2.63;2.42;;;;;;;;;;5054651;28;20704;-82
2023/06/06 11:45:16;;;;;;;2.42;2.22;;;;;;;;;;5054458;28;20500;-81
2023/06/06 11:47:43;;;;;;;2.78;2.40;;;;;;;;;;5054258;28;20374;-82
2023/06/06 11:50:09;;;;;;;2.90;2.40;;;;;;;;;;5054558;28;20373;-82
2023/06/06 11:52:45;;;;;;;3.15;2.30;;;;;;;;;;5054127;28;20389;-82
2023/06/06 11:55:11;;;;;;;2.42;2.22;;;;;;;;;;5054055;28;20393;-82
2023/06/06 11:57:37;;;;;;;4.40;2.60;;;;;;;;;;5053760;28;20409;-82
2023/06/06 12:00:15;;;;;;;3.30;2.50;;;;;;;;;;5054269;28;20381;-82
2023/06/06 12:02:41;;;;;;;2.60;2.40;;;;;;;;;;5053824;28;20377;-82
2023/06/06 12:05:22;;;;;;;3.22;2.53;;;;;;;;;;5053759;28;20405;-82
2023/06/06 12:07:49;;;;;;;4.88;2.40;;;;;;;;;;5052283;28;20373;-82
2023/06/06 12:10:22;;;;;;;5.35;2.83;;;;;;;;;;5053843;28;20377;-82
2023/06/06 12:12:48;;;;;;;2.90;2.60;;;;;;;;;;5053672;28;20381;-82
2023/06/06 12:15:15;;;;;;;3.50;2.30;;;;;;;;;;5053815;28;20381;-83
2023/06/06 12:17:40;;;;;;;2.83;2.40;;;;;;;;;;5053607;28;20374;-81
2023/06/06 12:20:07;;;;;;;3.03;2.50;;;;;;;;;;5053689;28;20404;-81
2023/06/06 12:22:35;;;;;;;2.75;2.40;;;;;;;;;;5053734;28;20735;-82
2023/06/06 12:25:02;;;;;;;3.15;2.55;;;;;;;;;;5038388;28;20409;-82
2023/06/06 12:27:30;;;;;;;2.75;2.38;;;;;;;;;;5053161;28;20389;-83
2023/06/06 12:29:57;;;;;;;3.00;2.45;;;;;;;;;;5053595;28;20378;-81
2023/06/06 12:32:26;;;;;;;3.85;2.53;;;;;;;;;;5052147;28;20378;-83
2023/06/06 12:35:00;;;;;;;4.40;2.40;;;;;;;;;;5053418;28;20388;-83
2023/06/06 12:37:36;;;;;;;3.10;2.15;;;;;;;;;;5053348;28;20373;-83
2023/06/06 12:40:08;;;;;;;2.70;2.50;;;;;;;;;;5053369;28;20847;-82
2023/06/06 12:42:34;;;;;;;3.70;2.60;;;;;;;;;;5038637;28;20747;-81
2023/06/06 12:45:01;;;;;;;2.90;2.42;;;;;;;;;;5053200;28;20413;-81
2023/06/06 12:47:27;;;;;;;4.00;2.70;;;;;;;;;;5053164;28;20862;-81
2023/06/06 12:49:53;;;;;;;2.80;2.45;;;;;;;;;;5053237;28;20452;-82
2023/06/06 12:52:19;;;;;;;2.85;2.65;;;;;;;;;;5051971;28;20399;-81
2023/06/06 12:54:45;;;;;;;2.50;2.30;;;;;;;;;;5051321;28;20382;-81
2023/06/06 12:57:12;;;;;;;3.20;2.37;;;;;;;;;;5052475;28;20428;-81
2023/06/06 12:59:41;;;;;;;2.92;2.72;;;;;;;;;;5052923;28;20396;-82
2023/06/06 13:02:08;;;;;;;2.65;2.45;;;;;;;;;;5052715;28;20862;-82
2023/06/06 13:04:34;;;;;;;3.10;2.33;;;;;;;;;;5052689;28;20409;-82
2023/06/06 13:07:00;;;;;;;2.60;2.40;;;;;;;;;;5052989;28;20739;-81
2023/06/06 13:09:27;;;;;;;3.00;2.40;;;;;;;;;;5052826;28;20466;-83
2023/06/06 13:11:54;;;;;;;3.85;2.25;;;;;;;;;;5052744;28;20409;-82
2023/06/06 13:14:20;;;;;;;2.97;2.47;;;;;;;;;;5052412;28;20382;-82
2023/06/06 13:16:46;;;;;;;2.88;2.58;;;;;;;;;;5053058;28;20381;-82
2023/06/06 13:19:12;;;;;;;3.00;2.70;;;;;;;;;;5051197;28;20373;-81
2023/06/06 13:21:38;;;;;;;2.70;2.50;;;;;;;;;;5051074;28;20392;-81
2023/06/06 13:24:04;;;;;;;4.10;2.58;;;;;;;;;;5052449;28;20416;-82
2023/06/06 13:26:30;;;;;;;3.60;2.60;;;;;;;;;;5053514;28;20401;-82
2023/06/06 13:28:56;;;;;;;2.50;2.30;;;;;;;;;;5052773;28;20421;-82
2023/06/06 13:31:22;;;;;;;2.70;2.50;;;;;;;;;;5052346;28;20456;-81
2023/06/06 13:33:48;;;;;;;3.40;2.60;;;;;;;;;;5051795;28;20396;-80
2023/06/06 13:36:14;;;;;;;3.35;2.40;;;;;;;;;;5052175;28;20385;-81
2023/06/06 13:38:44;;;;;;;2.50;2.30;;;;;;;;;;5051909;28;20882;-81
2023/06/06 13:41:10;;;;;;;2.70;2.38;;;;;;;;;;5051565;28;20467;-81
2023/06/06 13:43:36;;;;;;;2.60;2.40;;;;;;;;;;5051680;28;20485;-81
2023/06/06 13:46:02;;;;;;;3.30;2.35;;;;;;;;;;5051816;28;20798;-82
2023/06/06 13:48:28;;;;;;;3.30;2.40;;;;;;;;;;5052107;28;20384;-80
2023/06/06 13:50:55;;;;;;;5.10;2.50;;;;;;;;;;5050808;28;20396;-83
2023/06/06 13:53:22;;;;;;;3.00;2.38;;;;;;;;;;5051809;28;20377;-81
2023/06/06 13:55:49;;;;;;;2.42;2.22;;;;;;;;;;5051529;28;20867;-81
2023/06/06 13:58:21;;;;;;;3.80;2.40;;;;;;;;;;5052363;28;20417;-80
2023/06/06 14:00:47;;;;;;;2.70;2.50;;;;;;;;;;5051880;28;20503;-80
2023/06/06 14:03:13;;;;;;;3.80;2.80;;;;;;;;;;5051733;28;20739;-81
2023/06/06 14:05:39;;;;;;;2.97;2.70;;;;;;;;;;5050194;28;20922;-81
2023/06/06 14:08:05;;;;;;;2.78;2.58;;;;;;;;;;5052324;28;20377;-82
2023/06/06 14:10:32;;;;;;;3.35;2.30;;;;;;;;;;5050482;28;20427;-80
2023/06/06 14:12:58;;;;;;;2.80;2.60;;;;;;;;;;5051620;28;20942;-79
2023/06/06 14:15:24;;;;;;;2.55;2.38;;;;;;;;;;5052039;28;20373;-81
2023/06/06 14:17:50;;;;;;;2.95;2.65;;;;;;;;;;5051814;28;20389;-81
2023/06/06 14:20:21;;;;;;;4.25;2.70;;;;;;;;;;5051957;28;20416;-82
2023/06/06 14:22:48;;;;;;;3.38;2.58;;;;;;;;;;5051263;28;20385;-81
2023/06/06 14:25:15;;;;;;;3.20;2.65;;;;;;;;;;5051547;28;20404;-82
2023/06/06 14:27:41;;;;;;;2.90;2.58;;;;;;;;;;5051262;28;20977;-82
2023/06/06 14:30:07;;;;;;;2.90;2.70;;;;;;;;;;5050756;28;20397;-81
2023/06/06 14:32:34;;;;;;;3.78;2.30;;;;;;;;;;5050986;28;20459;-81
2023/06/06 14:35:05;;;;;;;2.80;2.50;;;;;;;;;;5051437;28;20393;-82
2023/06/06 14:37:31;;;;;;;4.07;2.43;;;;;;;;;;5051294;28;20404;-82
2023/06/06 14:39:58;;;;;;;4.60;2.60;;;;;;;;;;5050182;28;20878;-82
2023/06/06 14:42:24;;;;;;;2.53;2.33;;;;;;;;;;5051436;28;20468;-82
2023/06/06 14:44:50;;;;;;;2.58;2.38;;;;;;;;;;5051126;28;20405;-83